Time;durP1;ratioP1;P1;durP2;ratioP2;P2;SDS_P1;SDS_P2;PMS_P1;PMS_P2;Temp;Humidity;BMP_temperature;BMP_pressure;BME280_temperature;BME280_humidity;BME280_pressure;Samples;Min_cycle;Max_cycle;Signal;HPM_P1;HPM_P2
2023/06/24 00:02:08;;;;;;;11.05;5.38;;;614.50;2432.00;;;;;;5073853;28;20094;-72
2023/06/24 00:04:34;;;;;;;10.65;4.95;;;614.50;2432.00;;;;;;5077942;28;20119;-73
2023/06/24 00:07:00;;;;;;;23.15;5.65;;;614.60;2432.00;;;;;;5081327;28;20048;-72
2023/06/24 00:09:27;;;;;;;14.32;4.88;;;614.80;2432.00;;;;;;5075273;28;20032;-74
2023/06/24 00:11:56;;;;;;;14.60;5.57;;;614.80;2432.00;;;;;;5081782;28;20103;-73
2023/06/24 00:14:24;;;;;;;11.50;5.07;;;614.50;2432.00;;;;;;5073581;28;20017;-74
2023/06/24 00:16:51;;;;;;;17.40;5.25;;;589.60;2432.00;;;;;;5084370;28;20031;-73
2023/06/24 00:19:20;;;;;;;13.93;5.25;;;589.40;2432.00;;;;;;5077474;28;20029;-72
2023/06/24 00:21:53;;;;;;;12.05;5.03;;;589.50;2432.00;;;;;;5076053;28;20051;-72
2023/06/24 00:24:25;;;;;;;8.63;4.22;;;589.30;2432.00;;;;;;5078202;28;20028;-72
2023/06/24 00:26:54;;;;;;;10.50;3.83;;;589.10;2432.00;;;;;;5073739;28;20151;-75
2023/06/24 00:29:20;;;;;;;8.90;3.90;;;589.20;2432.00;;;;;;5077760;28;20505;-73
2023/06/24 00:31:46;;;;;;;8.98;3.75;;;589.10;2432.00;;;;;;5078533;28;20104;-73
2023/06/24 00:34:12;;;;;;;14.38;4.28;;;589.00;2432.00;;;;;;5057215;28;20037;-73
2023/06/24 00:36:38;;;;;;;12.80;3.95;;;588.80;2432.00;;;;;;5075360;28;20044;-73
2023/06/24 00:39:05;;;;;;;6.93;3.17;;;588.80;2432.00;;;;;;5082826;28;20029;-73
2023/06/24 00:41:31;;;;;;;11.50;3.35;;;588.80;2432.00;;;;;;5055830;28;20720;-73
2023/06/24 00:43:58;;;;;;;7.70;3.17;;;588.80;2432.00;;;;;;5069422;28;20021;-72
2023/06/24 00:46:28;;;;;;;8.20;3.28;;;588.80;2432.00;;;;;;5075553;28;20043;-72
2023/06/24 00:48:56;;;;;;;9.05;3.67;;;588.80;2432.00;;;;;;5076311;28;20090;-72
2023/06/24 00:51:26;;;;;;;11.93;4.20;;;589.00;2432.00;;;;;;5083176;28;20098;-74
2023/06/24 00:53:54;;;;;;;6.53;3.13;;;589.00;2432.00;;;;;;5078309;28;20033;-72
2023/06/24 00:56:22;;;;;;;14.13;3.65;;;589.00;2432.00;;;;;;5076111;28;20048;-72
2023/06/24 00:58:48;;;;;;;6.60;3.22;;;589.00;2432.00;;;;;;5076202;28;20477;-73
2023/06/24 01:01:15;;;;;;;16.88;4.05;;;589.00;2432.00;;;;;;5077168;28;20032;-73
2023/06/24 01:03:41;;;;;;;9.27;3.53;;;589.00;2432.00;;;;;;5061589;28;20094;-71
2023/06/24 01:06:09;;;;;;;12.27;3.83;;;589.00;2432.00;;;;;;5078205;28;20519;-73
2023/06/24 01:08:35;;;;;;;8.15;3.75;;;589.10;2432.00;;;;;;5077554;28;20053;-73
2023/06/24 01:11:01;;;;;;;6.30;2.97;;;589.30;2432.00;;;;;;5079180;28;20036;-73
2023/06/24 01:13:27;;;;;;;7.68;2.95;;;589.10;2432.00;;;;;;5082832;28;20032;-73
2023/06/24 01:15:53;;;;;;;12.95;3.55;;;589.00;2432.00;;;;;;5077874;28;20024;-73
2023/06/24 01:18:31;;;;;;;5.90;3.03;;;589.10;2432.00;;;;;;5081294;28;20032;-73
2023/06/24 01:21:05;;;;;;;10.05;3.50;;;589.30;2432.00;;;;;;5080330;28;20512;-73
2023/06/24 01:24:11;;;;;;;7.30;2.83;;;589.30;2432.00;;;;;;5074751;28;20029;-75
2023/06/24 01:26:43;;;;;;;14.27;3.60;;;589.10;2432.00;;;;;;5077809;28;20031;-73
2023/06/24 01:29:16;;;;;;;8.40;3.17;;;589.30;2432.00;;;;;;5081016;28;20039;-72
2023/06/24 01:31:44;;;;;;;11.43;3.60;;;589.40;2432.00;;;;;;5078796;28;20170;-76
2023/06/24 01:34:27;;;;;;;6.13;3.28;;;589.40;2432.00;;;;;;5082319;28;20024;-73
2023/06/24 01:36:57;;;;;;;11.80;4.03;;;589.40;2432.00;;;;;;5082826;28;20028;-73
2023/06/24 01:39:25;;;;;;;11.70;3.55;;;589.40;2432.00;;;;;;5078832;28;20024;-73
2023/06/24 01:42:00;;;;;;;8.07;3.00;;;589.60;2432.00;;;;;;5085441;28;20029;-73
2023/06/24 01:44:28;;;;;;;9.32;4.13;;;589.40;2432.00;;;;;;5071329;28;20032;-74
2023/06/24 01:46:57;;;;;;;17.38;3.42;;;589.30;2432.00;;;;;;5080563;28;20022;-73
2023/06/24 01:49:27;;;;;;;12.90;3.75;;;589.10;2432.00;;;;;;5080157;28;20081;-74
2023/06/24 01:51:56;;;;;;;11.23;3.80;;;589.10;2432.00;;;;;;5086475;28;20025;-72
2023/06/24 01:54:26;;;;;;;7.60;3.50;;;589.30;2432.00;;;;;;5081474;28;20090;-72
2023/06/24 01:56:54;;;;;;;9.40;3.38;;;589.30;2432.00;;;;;;5078977;28;20039;-73
2023/06/24 01:59:21;;;;;;;10.02;3.72;;;589.30;2432.00;;;;;;5080108;28;20016;-73
2023/06/24 02:01:47;;;;;;;7.25;3.40;;;589.10;2432.00;;;;;;5086999;28;20035;-73
2023/06/24 02:04:15;;;;;;;7.80;2.85;;;589.20;2432.00;;;;;;5080989;28;20033;-73
2023/06/24 02:06:42;;;;;;;11.50;3.65;;;589.00;2432.00;;;;;;5081209;28;20058;-73
2023/06/24 02:09:09;;;;;;;16.50;3.97;;;589.00;2432.00;;;;;;5077926;28;20082;-73
2023/06/24 02:11:37;;;;;;;13.30;3.83;;;564.10;2432.00;;;;;;5084198;28;20114;-73
2023/06/24 02:14:05;;;;;;;8.98;3.47;;;564.10;2432.00;;;;;;5075351;28;20048;-77
2023/06/24 02:16:32;;;;;;;8.50;3.60;;;588.80;2432.00;;;;;;5083220;28;20052;-72
2023/06/24 02:18:58;;;;;;;17.27;4.18;;;589.10;2432.00;;;;;;5077778;28;20057;-73
2023/06/24 02:21:25;;;;;;;8.27;3.40;;;589.00;2432.00;;;;;;5083486;28;20579;-72
2023/06/24 02:23:52;;;;;;;8.95;3.58;;;588.80;2432.00;;;;;;5076608;28;20032;-77
2023/06/24 02:26:18;;;;;;;7.75;2.95;;;588.80;2432.00;;;;;;5073861;28;20044;-73
2023/06/24 02:28:48;;;;;;;13.02;3.58;;;563.90;2432.00;;;;;;5075543;28;20021;-73
2023/06/24 02:31:15;;;;;;;8.98;3.38;;;563.90;2432.00;;;;;;5075455;28;20055;-73
2023/06/24 02:33:41;;;;;;;17.15;3.97;;;564.10;2432.00;;;;;;5075391;28;20105;-72
2023/06/24 02:36:07;;;;;;;8.38;3.42;;;564.10;2432.00;;;;;;5074126;28;20021;-73
2023/06/24 02:38:34;;;;;;;9.00;3.35;;;588.80;2432.00;;;;;;5074994;28;20031;-74
2023/06/24 02:41:02;;;;;;;8.52;2.90;;;564.10;2432.00;;;;;;5073145;28;20409;-73
2023/06/24 02:43:28;;;;;;;11.68;3.70;;;564.10;2432.00;;;;;;5075017;28;20378;-73
2023/06/24 02:45:54;;;;;;;6.93;3.75;;;588.90;2432.00;;;;;;5074899;28;20036;-73
2023/06/24 02:48:21;;;;;;;11.27;3.20;;;589.00;2432.00;;;;;;5075094;28;20024;-73
2023/06/24 02:50:47;;;;;;;13.50;4.13;;;589.00;2432.00;;;;;;5074669;28;20055;-72
2023/06/24 02:53:15;;;;;;;8.07;3.33;;;589.00;2432.00;;;;;;5074861;28;20077;-73
2023/06/24 02:55:42;;;;;;;10.65;3.58;;;589.10;2432.00;;;;;;5074246;28;20136;-73
2023/06/24 02:58:08;;;;;;;10.90;4.25;;;589.00;2432.00;;;;;;5089996;28;20032;-73
2023/06/24 03:00:37;;;;;;;9.57;3.03;;;589.00;2432.00;;;;;;5074782;28;20017;-72
2023/06/24 03:03:05;;;;;;;8.60;3.30;;;589.00;2432.00;;;;;;5074675;28;20032;-74
2023/06/24 03:05:32;;;;;;;13.27;4.35;;;589.00;2432.00;;;;;;5074479;28;20044;-74
2023/06/24 03:07:59;;;;;;;9.60;4.03;;;589.10;2432.00;;;;;;5074439;28;20098;-74
2023/06/24 03:10:25;;;;;;;10.32;3.70;;;589.10;2432.00;;;;;;5074418;28;20025;-74
2023/06/24 03:12:51;;;;;;;10.10;2.95;;;589.20;2432.00;;;;;;5072966;28;20052;-73
2023/06/24 03:15:17;;;;;;;10.38;3.45;;;589.20;2432.00;;;;;;5074477;28;20033;-75
2023/06/24 03:17:43;;;;;;;9.10;3.83;;;589.20;2432.00;;;;;;5060988;28;20009;-75
2023/06/24 03:20:09;;;;;;;9.18;3.33;;;589.20;2432.00;;;;;;5074302;28;20025;-72
2023/06/24 03:22:35;;;;;;;9.43;3.92;;;589.20;2432.00;;;;;;5060910;28;20039;-74
2023/06/24 03:25:01;;;;;;;8.20;3.47;;;589.20;2432.00;;;;;;5073995;28;20036;-72
2023/06/24 03:27:27;;;;;;;5.97;3.13;;;589.30;2432.00;;;;;;5074051;28;20058;-74
2023/06/24 03:29:52;;;;;;;7.22;3.13;;;589.20;2432.00;;;;;;5073985;28;20048;-74
2023/06/24 03:32:18;;;;;;;8.18;3.30;;;589.20;2432.00;;;;;;5073974;28;20027;-75
2023/06/24 03:34:44;;;;;;;9.75;3.40;;;589.10;2432.00;;;;;;5073830;28;20025;-72
2023/06/24 03:37:10;;;;;;;9.88;3.42;;;589.10;2432.00;;;;;;5072317;28;20493;-73
2023/06/24 03:39:35;;;;;;;20.15;4.00;;;589.20;2432.00;;;;;;5089048;28;20028;-72
2023/06/24 03:42:01;;;;;;;5.43;3.15;;;589.20;2432.00;;;;;;5073804;28;20020;-73
2023/06/24 03:44:27;;;;;;;8.93;3.20;;;589.20;2432.00;;;;;;5072073;28;20061;-73
2023/06/24 03:46:52;;;;;;;7.68;3.72;;;589.10;2432.00;;;;;;5074065;28;20024;-75
2023/06/24 03:49:18;;;;;;;11.43;3.58;;;589.10;2432.00;;;;;;5073831;28;20025;-72
2023/06/24 03:51:44;;;;;;;9.85;4.00;;;589.00;2432.00;;;;;;5073371;28;20024;-73
2023/06/24 03:54:10;;;;;;;8.13;3.85;;;589.00;2432.00;;;;;;5072952;28;20060;-73
2023/06/24 03:56:44;;;;;;;8.20;2.97;;;588.90;2432.00;;;;;;5073456;28;20039;-73
2023/06/24 03:59:10;;;;;;;6.35;3.47;;;589.00;2432.00;;;;;;5073411;28;20028;-73
2023/06/24 04:01:36;;;;;;;9.27;4.18;;;589.00;2432.00;;;;;;5073736;28;20017;-73
2023/06/24 04:04:03;;;;;;;11.93;3.33;;;589.00;2432.00;;;;;;5073384;28;20477;-74
2023/06/24 04:06:28;;;;;;;10.50;3.38;;;589.00;2432.00;;;;;;5072932;28;20059;-75
2023/06/24 04:08:54;;;;;;;7.05;3.40;;;589.00;2432.00;;;;;;5073346;28;20020;-74
2023/06/24 04:11:20;;;;;;;10.40;3.65;;;589.00;2432.00;;;;;;5072940;28;20107;-73
2023/06/24 04:13:48;;;;;;;8.00;3.97;;;589.00;2432.00;;;;;;5073251;28;20029;-79
2023/06/24 04:16:14;;;;;;;9.30;3.65;;;589.00;2432.00;;;;;;5073381;28;20027;-73
2023/06/24 04:18:40;;;;;;;7.93;3.33;;;588.90;2432.00;;;;;;5073264;28;20025;-73
2023/06/24 04:21:09;;;;;;;7.97;3.40;;;589.00;2432.00;;;;;;5073204;28;20108;-73
2023/06/24 04:23:34;;;;;;;4.95;3.10;;;589.00;2432.00;;;;;;5073126;28;20141;-74
2023/06/24 04:26:00;;;;;;;7.60;4.13;;;589.00;2432.00;;;;;;5072918;28;20116;-74
2023/06/24 04:28:26;;;;;;;11.07;4.43;;;589.10;2432.00;;;;;;5073519;28;20029;-73
2023/06/24 04:30:52;;;;;;;14.32;4.75;;;589.00;2432.00;;;;;;5072877;28;20035;-74
2023/06/24 04:33:18;;;;;;;16.13;5.50;;;589.00;2432.00;;;;;;5073465;28;20025;-74
2023/06/24 04:35:46;;;;;;;13.63;5.05;;;589.00;2432.00;;;;;;5071598;28;20502;-74
2023/06/24 04:38:17;;;;;;;7.57;4.70;;;588.90;2432.00;;;;;;5073227;28;20060;-73
2023/06/24 04:40:43;;;;;;;8.82;4.85;;;589.00;2432.00;;;;;;5072883;28;20016;-73
2023/06/24 04:43:09;;;;;;;8.65;4.93;;;588.90;2432.00;;;;;;5071805;28;20456;-74
2023/06/24 04:45:35;;;;;;;14.75;5.78;;;589.00;2432.00;;;;;;5072653;28;20032;-73
2023/06/24 04:48:00;;;;;;;13.93;4.78;;;589.00;2432.00;;;;;;5076020;28;20028;-73
2023/06/24 04:50:26;;;;;;;14.38;5.38;;;588.90;2432.00;;;;;;5069169;28;20032;-73
2023/06/24 04:52:56;;;;;;;8.77;5.85;;;588.90;2432.00;;;;;;5079586;28;20497;-74
2023/06/24 04:55:22;;;;;;;10.45;5.78;;;564.10;2432.00;;;;;;5077206;28;20061;-74
2023/06/24 04:57:48;;;;;;;9.63;4.68;;;588.80;2432.00;;;;;;5081037;28;20021;-75
2023/06/24 05:00:14;;;;;;;16.52;6.68;;;588.80;2432.00;;;;;;5087068;28;20033;-72
2023/06/24 05:02:40;;;;;;;13.73;5.68;;;589.00;2432.00;;;;;;5065797;28;20051;-74
2023/06/24 05:05:06;;;;;;;11.30;6.15;;;588.80;2432.00;;;;;;5079486;28;20478;-75
2023/06/24 05:07:32;;;;;;;15.60;5.82;;;588.80;2432.00;;;;;;5082813;28;20051;-75
2023/06/24 05:09:57;;;;;;;12.88;4.97;;;564.10;2432.00;;;;;;5063866;28;20068;-77
2023/06/24 05:12:23;;;;;;;10.05;5.38;;;588.80;2432.00;;;;;;5082289;28;20090;-73
2023/06/24 05:14:52;;;;;;;10.95;6.15;;;588.80;2432.00;;;;;;5080220;28;20024;-73
2023/06/24 05:17:19;;;;;;;10.60;5.60;;;589.00;2432.00;;;;;;5085658;28;20020;-73
2023/06/24 05:19:44;;;;;;;19.45;7.60;;;588.90;2432.00;;;;;;5083068;28;20065;-77
2023/06/24 05:22:10;;;;;;;14.32;6.00;;;588.90;2432.00;;;;;;5091444;28;20052;-76
2023/06/24 05:24:36;;;;;;;14.23;5.85;;;588.80;2432.00;;;;;;5082362;28;20032;-72
2023/06/24 05:27:06;;;;;;;14.50;5.75;;;588.90;2432.00;;;;;;5081734;28;20508;-74
2023/06/24 05:29:34;;;;;;;11.23;5.80;;;589.00;2432.00;;;;;;5081658;28;20013;-73
2023/06/24 05:32:03;;;;;;;12.63;5.57;;;589.20;2432.00;;;;;;5078176;28;20482;-73
2023/06/24 05:34:29;;;;;;;9.25;5.72;;;588.90;2432.00;;;;;;5084219;28;20016;-75
2023/06/24 05:36:55;;;;;;;15.32;5.63;;;589.00;2432.00;;;;;;5088620;28;20035;-75
2023/06/24 05:39:21;;;;;;;11.63;6.00;;;589.20;2432.00;;;;;;5068954;28;20808;-72
2023/06/24 05:41:48;;;;;;;15.40;7.00;;;589.30;2432.00;;;;;;5081478;28;20066;-73
2023/06/24 05:44:14;;;;;;;12.05;5.70;;;589.50;2432.00;;;;;;5076235;28;20036;-73
2023/06/24 05:46:40;;;;;;;8.57;5.78;;;589.50;2432.00;;;;;;5079093;28;20021;-74
2023/06/24 05:49:05;;;;;;;15.55;6.60;;;589.70;2432.00;;;;;;5078351;28;20382;-71
2023/06/24 05:51:32;;;;;;;10.70;5.53;;;589.70;2432.00;;;;;;5085597;28;20081;-74
2023/06/24 05:53:58;;;;;;;8.65;4.93;;;589.70;2432.00;;;;;;5080325;28;20032;-73
2023/06/24 05:56:26;;;;;;;11.13;5.28;;;614.40;2432.00;;;;;;5084100;28;20120;-73
2023/06/24 05:58:51;;;;;;;9.65;5.28;;;589.70;2432.00;;;;;;5078723;28;20086;-74
2023/06/24 06:01:17;;;;;;;8.70;5.82;;;589.70;2432.00;;;;;;5084353;28;20016;-74
2023/06/24 06:03:42;;;;;;;16.10;6.30;;;589.60;2432.00;;;;;;5080091;28;20059;-74
2023/06/24 06:06:08;;;;;;;14.10;5.97;;;589.70;2432.00;;;;;;5082934;28;20040;-73
2023/06/24 06:08:34;;;;;;;19.50;5.55;;;614.40;2432.00;;;;;;5082893;28;20128;-74
2023/06/24 06:11:02;;;;;;;14.18;5.88;;;614.50;2432.00;;;;;;5081861;28;20024;-74
2023/06/24 06:13:28;;;;;;;10.60;5.22;;;614.40;2432.00;;;;;;5080485;28;20432;-74
2023/06/24 06:15:54;;;;;;;7.60;5.00;;;614.40;2432.00;;;;;;5083415;28;20021;-73
2023/06/24 06:18:20;;;;;;;11.13;5.10;;;614.40;2432.00;;;;;;5078730;28;20029;-75
2023/06/24 06:20:46;;;;;;;9.93;5.53;;;614.50;2432.00;;;;;;5090461;28;20032;-75
2023/06/24 06:23:11;;;;;;;9.73;5.53;;;614.60;2432.00;;;;;;5061634;28;20036;-75
2023/06/24 06:25:38;;;;;;;8.38;5.15;;;614.80;2432.00;;;;;;5065059;28;20048;-75
2023/06/24 06:28:04;;;;;;;9.30;5.38;;;614.80;2432.00;;;;;;5083436;28;20024;-74
2023/06/24 06:30:29;;;;;;;9.15;5.50;;;614.70;2432.00;;;;;;5082718;28;20024;-73
2023/06/24 06:32:55;;;;;;;8.40;5.97;;;614.70;2432.00;;;;;;5082772;28;20032;-74
2023/06/24 06:35:21;;;;;;;12.13;7.10;;;614.90;2432.00;;;;;;5081874;28;20032;-73
2023/06/24 06:37:52;;;;;;;13.23;8.48;;;615.00;2432.00;;;;;;5061617;28;20048;-74
2023/06/24 06:40:18;;;;;;;9.48;6.70;;;614.90;2432.00;;;;;;5083580;28;20114;-73
2023/06/24 06:42:44;;;;;;;11.63;7.13;;;615.00;2432.00;;;;;;5079959;28;20016;-73
2023/06/24 06:45:10;;;;;;;16.02;7.85;;;615.20;2432.00;;;;;;5080522;28;20037;-74
2023/06/24 06:47:36;;;;;;;11.65;7.32;;;615.30;2432.00;;;;;;5084019;28;20020;-74
2023/06/24 06:50:01;;;;;;;20.02;8.30;;;640.00;2432.00;;;;;;5085377;28;20042;-73
2023/06/24 06:52:30;;;;;;;12.88;8.73;;;640.30;2432.00;;;;;;5081895;28;20035;-74
2023/06/24 06:54:56;;;;;;;13.48;8.20;;;640.20;2432.00;;;;;;5083331;28;20055;-75
2023/06/24 06:57:22;;;;;;;15.93;9.15;;;640.20;2432.00;;;;;;5079494;28;20041;-75
2023/06/24 06:59:50;;;;;;;16.42;9.18;;;640.20;2432.00;;;;;;5079549;28;20089;-74
2023/06/24 07:02:16;;;;;;;14.40;8.95;;;640.10;2432.00;;;;;;5070258;28;20533;-73
2023/06/24 07:04:42;;;;;;;14.88;10.02;;;640.20;2432.00;;;;;;5080325;28;20127;-75
2023/06/24 07:07:08;;;;;;;11.32;7.70;;;640.30;2432.00;;;;;;5089274;28;20029;-74
2023/06/24 07:09:34;;;;;;;14.25;8.23;;;640.30;2432.00;;;;;;5077446;28;20040;-72
2023/06/24 07:12:00;;;;;;;12.70;8.40;;;640.30;2432.00;;;;;;5080283;28;20031;-75
2023/06/24 07:14:26;;;;;;;10.55;7.20;;;640.50;2432.00;;;;;;5083106;28;20083;-74
2023/06/24 07:16:51;;;;;;;15.27;8.13;;;640.70;2432.00;;;;;;5087182;28;20062;-71
2023/06/24 07:19:17;;;;;;;11.45;7.32;;;640.60;2432.00;;;;;;5059669;28;20028;-74
2023/06/24 07:21:43;;;;;;;10.63;7.85;;;640.70;2432.00;;;;;;5083739;28;20039;-74
2023/06/24 07:24:09;;;;;;;11.90;7.85;;;640.90;2432.00;;;;;;5080868;28;20033;-73
2023/06/24 07:26:35;;;;;;;10.48;7.53;;;640.90;2432.00;;;;;;5064740;28;20036;-73
2023/06/24 07:29:01;;;;;;;15.68;7.60;;;665.70;2432.00;;;;;;5079569;28;20074;-73
2023/06/24 07:31:26;;;;;;;15.25;8.65;;;665.90;2432.00;;;;;;5080279;28;20048;-74
2023/06/24 07:33:52;;;;;;;11.50;7.15;;;665.70;2432.00;;;;;;5081471;28;20040;-74
2023/06/24 07:36:18;;;;;;;14.13;8.32;;;665.70;2432.00;;;;;;5059511;28;20394;-74
2023/06/24 07:38:44;;;;;;;11.93;6.68;;;665.70;2432.00;;;;;;5076025;28;20021;-74
2023/06/24 07:41:10;;;;;;;10.95;6.68;;;665.90;2432.00;;;;;;5087731;28;20524;-74
2023/06/24 07:43:35;;;;;;;10.00;7.07;;;665.90;2432.00;;;;;;5086526;28;20429;-72
2023/06/24 07:46:02;;;;;;;13.00;7.63;;;666.00;2432.00;;;;;;5075586;28;20040;-73
2023/06/24 07:48:28;;;;;;;16.25;9.00;;;666.10;2432.00;;;;;;5083677;28;20426;-74
2023/06/24 07:50:54;;;;;;;10.77;7.72;;;666.00;2432.00;;;;;;5078387;28;20028;-74
2023/06/24 07:53:19;;;;;;;15.35;8.18;;;666.10;2432.00;;;;;;5077651;28;20082;-76
2023/06/24 07:55:45;;;;;;;16.10;7.80;;;666.30;2432.00;;;;;;5080960;28;20055;-76
2023/06/24 07:58:11;;;;;;;10.00;6.80;;;666.30;2432.00;;;;;;5081031;28;20028;-74
2023/06/24 08:00:37;;;;;;;13.35;8.18;;;666.20;2432.00;;;;;;5077599;28;20049;-74
2023/06/24 08:03:03;;;;;;;11.60;6.80;;;666.00;2432.00;;;;;;5080080;28;20362;-78
2023/06/24 08:05:29;;;;;;;14.40;7.25;;;666.30;2432.00;;;;;;5059889;28;20041;-77
2023/06/24 08:07:55;;;;;;;14.80;8.00;;;666.30;2432.00;;;;;;5073726;28;20030;-74
2023/06/24 08:10:21;;;;;;;19.25;8.30;;;666.40;2432.00;;;;;;5076696;28;20036;-78
2023/06/24 08:12:46;;;;;;;13.10;7.75;;;691.20;2432.00;;;;;;5080007;28;20159;-76
2023/06/24 08:15:13;;;;;;;20.65;8.77;;;666.50;2432.00;;;;;;5076285;28;20032;-74
2023/06/24 08:17:39;;;;;;;10.52;7.00;;;666.50;2432.00;;;;;;5076481;28;20095;-75
2023/06/24 08:20:05;;;;;;;11.82;6.57;;;691.30;2432.00;;;;;;5073192;28;20040;-73
2023/06/24 08:22:31;;;;;;;11.63;7.05;;;691.30;2432.00;;;;;;5081311;28;20034;-74
2023/06/24 08:24:58;;;;;;;13.10;6.78;;;691.20;2432.00;;;;;;5085440;28;20123;-74
2023/06/24 08:27:24;;;;;;;8.15;5.25;;;691.50;2432.00;;;;;;5077244;28;20112;-74
2023/06/24 08:29:50;;;;;;;14.00;5.45;;;691.50;2432.00;;;;;;5081601;28;20525;-76
2023/06/24 08:32:15;;;;;;;8.90;5.15;;;691.70;2432.00;;;;;;5081473;28;20089;-79
2023/06/24 08:34:41;;;;;;;17.20;7.05;;;691.80;2432.00;;;;;;5078361;28;20534;-74
2023/06/24 08:37:07;;;;;;;10.50;6.60;;;692.10;2432.00;;;;;;5078069;28;20050;-76
2023/06/24 08:39:32;;;;;;;7.53;5.40;;;691.90;2432.00;;;;;;5081637;28;20028;-74
2023/06/24 08:41:59;;;;;;;6.93;4.97;;;691.90;2432.00;;;;;;5079518;28;20028;-75
2023/06/24 08:44:24;;;;;;;10.70;6.03;;;691.90;2432.00;;;;;;5072044;28;20402;-73
2023/06/24 08:46:50;;;;;;;10.02;5.45;;;692.10;2432.00;;;;;;5078105;28;20024;-72
2023/06/24 08:49:22;;;;;;;13.18;5.50;;;716.80;2432.00;;;;;;5076340;28;20037;-74
2023/06/24 08:51:55;;;;;;;8.70;6.10;;;716.80;2432.00;;;;;;5076632;28;20048;-75
2023/06/24 08:54:22;;;;;;;9.40;5.78;;;692.10;2432.00;;;;;;5076841;28;20485;-77
2023/06/24 08:56:48;;;;;;;8.85;5.65;;;692.00;2432.00;;;;;;5076847;28;20509;-72
2023/06/24 08:59:19;;;;;;;8.25;5.75;;;692.00;2406.40;;;;;;5075211;28;20493;-74
2023/06/24 09:01:46;;;;;;;8.80;5.53;;;691.90;2432.00;;;;;;5075091;28;20020;-74
2023/06/24 09:04:11;;;;;;;7.75;5.93;;;691.80;2432.00;;;;;;5082225;28;20489;-73
2023/06/24 09:06:37;;;;;;;12.05;6.45;;;691.80;2432.00;;;;;;5077205;28;20028;-74
2023/06/24 09:09:03;;;;;;;11.45;5.50;;;691.80;2432.00;;;;;;5075863;28;20556;-73
2023/06/24 09:11:29;;;;;;;10.10;5.22;;;691.80;2432.00;;;;;;5077299;28;20116;-73
2023/06/24 09:13:56;;;;;;;7.93;5.38;;;691.90;2432.00;;;;;;5077123;28;20382;-72
2023/06/24 09:16:22;;;;;;;8.52;5.90;;;692.00;2432.00;;;;;;5076196;28;20037;-72
2023/06/24 09:18:49;;;;;;;11.35;5.35;;;692.00;2432.00;;;;;;5072763;28;20424;-71
2023/06/24 09:21:25;;;;;;;11.52;5.68;;;692.10;2432.00;;;;;;5079473;28;20029;-74
2023/06/24 09:23:54;;;;;;;8.13;5.82;;;716.80;2432.00;;;;;;5083521;28;20021;-73
2023/06/24 09:26:26;;;;;;;9.98;5.15;;;692.00;2432.00;;;;;;5077221;28;20044;-76
2023/06/24 09:28:52;;;;;;;9.57;5.22;;;717.10;2432.00;;;;;;5074852;28;20082;-72
2023/06/24 09:31:18;;;;;;;8.15;5.55;;;717.10;2432.00;;;;;;5079989;28;20035;-72
2023/06/24 09:33:44;;;;;;;7.20;4.85;;;717.30;2432.00;;;;;;5069138;28;20020;-76
2023/06/24 09:36:14;;;;;;;11.60;5.63;;;717.50;2278.40;;;;;;5080550;28;20424;-72
2023/06/24 09:38:44;;;;;;;7.28;5.47;;;717.60;2252.80;;;;;;5077914;28;20077;-73
2023/06/24 09:41:11;;;;;;;11.57;5.47;;;717.50;2432.00;;;;;;5074177;28;20025;-74
2023/06/24 09:43:39;;;;;;;11.05;5.18;;;717.40;2432.00;;;;;;5085237;28;20020;-74
2023/06/24 09:46:06;;;;;;;9.48;4.90;;;717.50;2406.40;;;;;;5080103;28;20394;-73
2023/06/24 09:48:33;;;;;;;10.07;5.30;;;717.60;2432.00;;;;;;5083696;28;20369;-75
2023/06/24 09:51:01;;;;;;;11.02;5.07;;;742.50;2278.40;;;;;;5064796;28;20077;-73
2023/06/24 09:53:35;;;;;;;7.63;4.65;;;742.40;2252.80;;;;;;5083344;28;20017;-73
2023/06/24 09:56:03;;;;;;;9.73;4.75;;;717.70;2252.80;;;;;;5080610;28;20052;-74
2023/06/24 09:58:32;;;;;;;10.10;5.22;;;717.70;2227.20;;;;;;5082345;28;20033;-73
2023/06/24 10:01:03;;;;;;;7.30;4.70;;;742.40;2278.40;;;;;;5085932;28;20545;-80
2023/06/24 10:03:31;;;;;;;9.60;5.25;;;742.50;2406.40;;;;;;5086811;28;20020;-73
2023/06/24 10:05:58;;;;;;;12.13;4.90;;;742.50;2227.20;;;;;;5080159;28;20040;-74
2023/06/24 10:08:24;;;;;;;11.57;4.75;;;742.40;2304.00;;;;;;5080135;28;20102;-74
2023/06/24 10:10:50;;;;;;;6.63;4.50;;;717.70;2252.80;;;;;;5087551;28;20107;-74
2023/06/24 10:13:15;;;;;;;12.20;5.35;;;717.60;2227.20;;;;;;5084008;28;20016;-72
2023/06/24 10:15:41;;;;;;;9.35;5.03;;;717.50;2278.40;;;;;;5078652;28;20092;-72
2023/06/24 10:18:34;;;;;;;10.30;5.00;;;717.40;2304.00;;;;;;5085558;28;20052;-72
2023/06/24 10:20:59;;;;;;;7.35;5.10;;;717.50;2252.80;;;;;;5079991;28;20032;-72
2023/06/24 10:23:41;;;;;;;7.72;4.28;;;717.30;2432.00;;;;;;5085497;28;20359;-72
2023/06/24 10:26:23;;;;;;;8.52;5.00;;;717.40;2432.00;;;;;;5080234;28;20040;-71
2023/06/24 10:29:07;;;;;;;8.23;5.28;;;717.40;2329.60;;;;;;5081166;28;20028;-71
2023/06/24 10:31:39;;;;;;;9.27;5.03;;;717.20;2406.40;;;;;;5081129;28;20036;-77
2023/06/24 10:34:23;;;;;;;8.77;4.55;;;717.10;2380.80;;;;;;5085636;28;20024;-72
2023/06/24 10:36:55;;;;;;;11.13;5.25;;;717.10;2432.00;;;;;;5078082;28;20085;-72
2023/06/24 10:39:37;;;;;;;6.15;4.25;;;717.20;2355.20;;;;;;5082895;28;20024;-71
2023/06/24 10:42:26;;;;;;;7.63;4.78;;;716.90;2406.40;;;;;;5076607;28;20119;-72
2023/06/24 10:44:57;;;;;;;6.47;4.53;;;716.90;2432.00;;;;;;5076581;28;20079;-73
2023/06/24 10:47:23;;;;;;;6.78;4.72;;;716.90;2432.00;;;;;;5081565;28;20116;-72
2023/06/24 10:49:50;;;;;;;5.85;4.05;;;716.90;2432.00;;;;;;5081854;28;20034;-72
2023/06/24 10:52:20;;;;;;;7.50;4.45;;;717.10;2432.00;;;;;;5079004;28;20020;-72
2023/06/24 10:54:46;;;;;;;11.23;4.88;;;717.10;2355.20;;;;;;5082381;28;20045;-72
2023/06/24 10:57:12;;;;;;;11.07;4.82;;;716.90;2406.40;;;;;;5078082;28;20028;-71
2023/06/24 10:59:42;;;;;;;6.10;4.32;;;716.90;2406.40;;;;;;5078473;28;20060;-74
2023/06/24 11:02:11;;;;;;;14.00;4.50;;;716.90;2432.00;;;;;;5077829;28;20047;-71
2023/06/24 11:05:07;;;;;;;6.68;4.30;;;716.80;2432.00;;;;;;5082268;28;20478;-71
2023/06/24 11:07:35;;;;;;;7.25;4.13;;;716.80;2432.00;;;;;;5047056;28;20549;-71
2023/06/24 11:10:06;;;;;;;10.63;4.22;;;716.90;2432.00;;;;;;5041837;28;20076;-71
2023/06/24 11:12:33;;;;;;;10.52;5.43;;;716.80;2432.00;;;;;;5040436;28;20078;-73
2023/06/24 11:15:04;;;;;;;12.82;6.20;;;692.00;2432.00;;;;;;5039423;28;20029;-70
2023/06/24 11:17:30;;;;;;;12.18;4.95;;;692.10;2432.00;;;;;;5044174;28;20037;-73
2023/06/24 11:19:58;;;;;;;7.70;4.63;;;692.10;2432.00;;;;;;5042170;28;20025;-71
2023/06/24 11:22:25;;;;;;;7.95;4.95;;;692.10;2432.00;;;;;;5038350;28;20036;-72
2023/06/24 11:24:51;;;;;;;13.70;6.45;;;692.10;2432.00;;;;;;5042767;28;20041;-71
2023/06/24 11:27:28;;;;;;;11.68;5.90;;;692.10;2432.00;;;;;;5039151;28;20475;-71
2023/06/24 11:29:55;;;;;;;10.65;5.03;;;692.00;2432.00;;;;;;5039132;28;20037;-71
2023/06/24 11:32:21;;;;;;;8.23;5.45;;;691.90;2432.00;;;;;;5038789;28;20032;-73
2023/06/24 11:34:48;;;;;;;10.82;5.88;;;691.90;2432.00;;;;;;5038364;28;20033;-73
2023/06/24 11:37:16;;;;;;;10.43;5.57;;;691.90;2432.00;;;;;;5039419;28;20064;-72
2023/06/24 11:39:43;;;;;;;8.02;5.07;;;691.90;2432.00;;;;;;5042246;28;20161;-72
2023/06/24 11:42:09;;;;;;;10.07;5.05;;;691.70;2432.00;;;;;;5036838;28;20064;-70
2023/06/24 11:44:35;;;;;;;13.68;5.40;;;691.70;2432.00;;;;;;5065825;28;20123;-72
2023/06/24 11:47:08;;;;;;;10.25;5.05;;;691.70;2432.00;;;;;;5079996;28;20058;-74
2023/06/24 11:49:54;;;;;;;12.23;5.80;;;691.70;2432.00;;;;;;5079790;28;20473;-73
2023/06/24 11:52:27;;;;;;;;;;;691.70;2432.00;;;;;;5073871;28;20040;-73
2023/06/24 11:54:53;;;;;;;10.88;5.75;;;691.40;2432.00;;;;;;5079945;28;19920;-73
2023/06/24 11:57:18;;;;;;;8.80;5.35;;;691.20;2432.00;;;;;;5077045;28;20107;-74
2023/06/24 11:59:44;;;;;;;12.02;6.05;;;691.20;2432.00;;;;;;5074732;28;20093;-74
2023/06/24 12:02:14;;;;;;;9.00;5.13;;;666.50;2432.00;;;;;;5082389;28;20407;-75
2023/06/24 12:04:43;;;;;;;15.60;6.28;;;666.30;2432.00;;;;;;5084619;28;20032;-73
2023/06/24 12:07:09;;;;;;;9.50;4.90;;;666.20;2432.00;;;;;;5075889;28;20056;-74
2023/06/24 12:09:38;;;;;;;9.52;6.30;;;666.00;2432.00;;;;;;5078731;28;20486;-72
2023/06/24 12:12:04;;;;;;;8.18;5.78;;;665.90;2432.00;;;;;;5077644;28;20074;-72
2023/06/24 12:14:30;;;;;;;9.68;6.30;;;666.00;2432.00;;;;;;5077571;28;20466;-72
2023/06/24 12:16:55;;;;;;;16.55;6.05;;;665.70;2432.00;;;;;;5080286;28;20028;-72